Tiempo atmosférico en la estación meteorológica de Abia De Obispalia, Cuenca (1020 m.)



Fecha
DESCASC
Temp. máxima en grados centígrados (hora)
DESCASC
Temp. mínima en grados centígrados (hora)
DESCASC
Temp. media en grados centígrados
DESCASC
Racha de viento máxima en m/sg (hora)
DESCASC
Velocidad máxima media en intervalos de 10 minutos(hora)
DESCASC
Precipitaciones diarias en mm
DESCASC
Precipitaciones de 00:00 a 06:00 en mm
DESCASC
Precipitaciones de 06:00 a 12:00 en mm
DESCASC
Precipitaciones de 12:00 a 18:00 en mm
DESCASC
Precipitaciones de 18:00 a 24:00 en mm
DESCASC
29-03-2020 17.2 (17:20) 0.2 (07:30) 8.7 6.67 (17:40) 3.61 (12:20) 0 0 0 0 0
28-03-2020 12.7 (16:10) -1.7 (05:40) 5.5 5.83 (00:20) 3.61 (14:50) 0 0 0 0 0
27-03-2020 6.2 (16:50) -0.2 (07:30) 3 9.72 (03:50) 6.39 (03:50) 6.4 0 2.8 3.6 0
26-03-2020 11.8 (17:40) 2.5 (00:00) 7.2 11.39 (12:50) 6.11 (13:00) 0 0 0 0 0
25-03-2020 13 (16:50) 0.6 (00:00) 6.8 10.56 (17:00) 4.72 (16:00) 2.4 0 0 0 2.4
24-03-2020 11.5 (12:20) 3.1 (00:00) 7.3 11.67 (12:00) 6.11 (01:40) 0 0 0 0 0
23-03-2020 10.7 (13:20) 5.3 (00:00) 8 9.44 (10:50) 5.28 (18:40) 14.4 5.8 3.6 5 0
22-03-2020 11.2 (13:20) 1.1 (03:30) 6.1 8.06 (21:00) 5 (18:10) 14.4 0 0 9.2 5.2
21-03-2020 7.7 (11:30) 3.8 (00:00) 5.7 11.39 (01:00) 6.67 (01:40) 5.8 0 0 0.4 5.4
20-03-2020 9.5 (16:00) 5.5 (00:00) 7.5 11.11 (01:10) 7.78 (02:10) 0 0 0 0 0
19-03-2020 13.4 (16:10) 2.7 (00:00) 8 11.67 (23:59) 7.5 (20:40) 0 0 0 0 0
18-03-2020 16.6 (15:00) 7.1 (00:00) 11.9 11.67 (04:20) 7.22 (04:30) 0 0 0 0 0
17-03-2020 11 (12:10) 1 (00:00) 6 11.11 (15:50) 6.67 (15:50) 6.2 2.6 0.2 3.4 0
16-03-2020 8.5 (00:00) 1 (00:00) 4.8 11.94 (04:10) 5.83 (05:30) 23.8 19.6 3.8 0.2 0.2
15-03-2020 16.2 (13:00) 7.9 (00:00) 12.1 10 (09:30) 6.67 (09:30) 16.4 0 0 14.4 2
14-03-2020 20.5 (14:00) 5 (00:00) 12.8 7.78 (23:20) 5.83 (23:20) 0 0 0 0 0
13-03-2020 20.5 (15:10) 8.6 (06:20) 14.6 7.78 (13:30) 5 (16:40) 0 0 0 0 0
12-03-2020 25.2 (14:50) 7.4 (00:00) 16.3 8.61 (14:30) 4.17 (11:30) 0 0 0 0 0
11-03-2020 25.6 (16:10) 5.3 (00:00) 15.5 6.67 (15:10) 3.89 (13:40) 0 0 0 0 0
10-03-2020 21.4 (15:20) 2.6 (00:00) 12 6.11 (14:20) 3.61 (14:30) 0 0 0 0 0
09-03-2020 15 (16:00) 0.6 (00:00) 7.8 12.22 (16:10) 5.83 (16:10) 0 0 0 0 0
08-03-2020 16.2 (15:50) -1.6 (-00:0) 7.3 7.78 (12:10) 4.17 (12:10) 0 0 0 0 0
07-03-2020 13.4 (16:20) -0.5 (-00:0) 6.4 11.67 (16:00) 6.67 (16:10) 0 0 0 0 0
06-03-2020 9.3 (14:40) 2.4 (00:00) 5.9 18.33 (12:20) 10.28 (15:20) 0 0 0 0 0
05-03-2020 11.6 (17:10) 5.8 (00:00) 8.7 13.89 (16:50) 8.33 (16:50) 2.6 0 0 2.6 0
04-03-2020 14 (16:40) 8.5 (00:00) 11.3 9.17 (00:10) 5.28 (14:30) 0 0 0 0 0
03-03-2020 11.8 (17:20) 1.3 (00:00) 6.6 13.33 (21:20) 6.67 (15:50) 0 0 0 0 0
02-03-2020 9.3 (12:30) 2.6 (00:00) 6 19.44 (10:40) 11.11 (10:50) 12.6 8.2 4.4 0 0
01-03-2020 10.5 (18:10) 5.4 (00:00) 8 13.33 (23:10) 6.11 (11:50) 1.8 0.2 0 0.2 1.4
29-02-2020 12.9 (13:20) 5.9 (00:00) 9.4 12.22 (18:10) 6.39 (18:00) 0 0 0 0 0

Gráficas

Temp. máximas Temp. mínimas Temp. medias Precipitaciones Rachas de viento máximas Velocidades máximas media en intervalos de 10 minutos

Datos horarios

Fecha y hora oficial Temperatura (ºC) Velocidad del viento (km/h) Dirección del viento Racha (km/h) Dirección de racha Precipitación (mm) Presión (hPa) Tendencia (hPa) Humedad (%)
2020-03-29 23:00:00 7.6 0 Calma 8 Noroeste 0 -- -- 71
2020-03-29 22:00:00 9.6 4 Noroeste 11 Oeste 0 -- -- 59
2020-03-29 21:00:00 11.4 6 Oeste 16 Oeste 0 -- -- 53
2020-03-29 20:00:00 14.2 8 Noroeste 19 Noroeste 0 -- -- 44
2020-03-29 19:00:00 16.3 9 Noroeste 21 Norte 0 -- -- 36
2020-03-29 18:00:00 17.1 8 Noroeste 24 Noroeste 0 -- -- 34
2020-03-29 17:00:00 16.9 6 Noroeste 23 Noroeste 0 -- -- 37
2020-03-29 16:00:00 16.6 9 Noroeste 22 Noroeste 0 -- -- 38
2020-03-29 15:00:00 15.7 10 Norte 22 Noroeste 0 -- -- 42
2020-03-29 14:00:00 14.5 7 Noroeste 21 Norte 0 -- -- 46
2020-03-29 13:00:00 13.2 9 Noroeste 22 Noroeste 0 -- -- 50
2020-03-29 12:00:00 11.9 12 Norte 23 Norte 0 -- -- 50
2020-03-29 11:00:00 10 5 Noroeste 10 Noroeste 0 -- -- 60
2020-03-29 10:00:00 7.2 0 Calma 2 Oeste 0 -- -- 75
2020-03-29 09:00:00 2.1 2 Oeste 3 Oeste 0 -- -- 99
2020-03-29 08:00:00 0.2 0 Calma 2 Sudoeste 0 -- -- 97
2020-03-29 07:00:00 0.3 0 Calma 2 Sudoeste 0 -- -- 96
2020-03-29 06:00:00 0.6 0 Calma 2 Sudoeste 0 -- -- 96
2020-03-29 05:00:00 0.8 0 Calma 0 Calma 0 -- -- 96
2020-03-29 03:00:00 1.5 0 Calma 6 Oeste 0 -- -- 93
2020-03-29 01:00:00 2.3 2 Sudoeste 5 Sudoeste 0 -- -- 92
2020-03-29 00:00:00 2.7 0 Calma 3 Sudoeste 0 -- -- 91
2020-03-28 23:00:00 3 0 Calma 4 Sudoeste 0 -- -- 90
2020-03-28 22:00:00 3.8 0 Calma 3 Oeste 0 -- -- 87
2020-03-28 21:00:00 5.7 2 Sudoeste 8 Sur 0 -- -- 80
2020-03-28 20:00:00 7.9 6 Sur 8 Sudoeste 0 -- -- 68
2020-03-28 19:00:00 9.8 6 Sudoeste 15 Sur 0 -- -- 61
2020-03-28 18:00:00 10.3 8 Sur 12 Sur 0 -- -- 60
2020-03-28 17:00:00 12.1 6 Noroeste 17 Sur 0 -- -- 51
2020-03-28 16:00:00 12.5 6 Noroeste 13 Norte 0 -- -- 48
2020-03-28 15:00:00 11.2 7 Sur 20 Sur 0 -- -- 56
2020-03-28 14:00:00 10.5 4 Noroeste 12 Noroeste 0 -- -- 50
2020-03-28 13:00:00 9.8 6 Noroeste 18 Noroeste 0 -- -- 52
2020-03-28 12:00:00 9.8 7 Oeste 15 Oeste 0 -- -- 53
2020-03-28 11:00:00 8.7 4 Norte 9 Oeste 0 -- -- 48
2020-03-28 10:00:00 6.9 4 Norte 7 Norte 0 -- -- 47
2020-03-28 09:00:00 3.2 0 Calma 3 Norte 0 -- -- 74
2020-03-28 08:00:00 -0.2 0 Calma 3 Norte 0 -- -- 92
2020-03-28 07:00:00 -1.4 2 Norte 6 Norte 0 -- -- 90
2020-03-28 06:00:00 -1.2 3 Sur 7 Sur 0 -- -- 92
2020-03-28 05:00:00 -1.5 0 Calma 2 Sudoeste 0 -- -- 97
2020-03-28 04:00:00 -1.3 0 Calma 2 Sudoeste 0 -- -- 96
2020-03-28 03:00:00 -0.4 0 Calma 6 Sudeste 0 -- -- 93
2020-03-28 02:00:00 0.2 0 Calma 5 Este 0 -- -- 92
2020-03-28 01:00:00 1.6 4 Sudeste 21 Este 0 -- -- 91
2020-03-28 00:00:00 1.8 8 Este 19 Este 0 -- -- 93
2020-03-27 23:00:00 1.5 8 Sudeste 16 Sudeste 0 -- -- 93
2020-03-27 22:00:00 2 9 Sudeste 18 Este 0 -- -- 89
2020-03-27 21:00:00 2.3 11 Sudeste 23 Sudeste 0 -- -- 88
2020-03-27 20:00:00 2.8 12 Sudeste 35 Sur 0 -- -- 90
2020-03-27 19:00:00 4 22 Sur 32 Sur 0 -- -- 84
2020-03-27 18:00:00 5 16 Sudeste 31 Sudeste 0 -- -- 79
2020-03-27 17:00:00 6 15 Sudeste 27 Sudeste 0 -- -- 78
2020-03-27 16:00:00 5.2 13 Sudeste 22 Sudeste 0 -- -- 84
2020-03-27 15:00:00 4.2 13 Sudeste 27 Sudeste 0 -- -- 88
2020-03-27 14:00:00 3.6 8 Este 22 Sudeste 1.4 -- -- 90
2020-03-27 13:00:00 1.9 15 Sudeste 27 Sudeste 2.2 -- -- 93
2020-03-27 12:00:00 1 10 Este 17 Sudeste 1.6 -- -- 95
2020-03-27 11:00:00 0.5 8 Este 19 Este 1 -- -- 97
2020-03-27 10:00:00 0.3 7 Este 19 Sudeste 0.2 -- -- 97
2020-03-27 09:00:00 -0.1 10 Este 22 Este 0 -- -- 97
2020-03-27 08:00:00 -0.2 7 Este 17 Este 0 -- -- 96
2020-03-27 07:00:00 0.2 9 Este 33 Este 0 -- -- 88
2020-03-27 06:00:00 1.3 12 Sudeste 24 Sudeste 0 -- -- 79
2020-03-27 05:00:00 1.3 13 Sudeste 33 Sudeste 0 -- -- 84
2020-03-27 04:00:00 1.7 23 Sudeste 35 Sudeste 0 -- -- 78
2020-03-27 03:00:00 1.7 19 Sudeste 30 Sudeste 0 -- -- 84
2020-03-27 02:00:00 2.1 21 Sudeste 29 Sudeste 0 -- -- 68
2020-03-27 01:00:00 1.9 7 Sudeste 16 Sudeste 0 -- -- 66
2020-03-27 00:00:00 2.9 7 Sudeste 22 Sudeste 0 -- -- 60
2020-03-26 23:00:00 3.5 0 Calma 10 Este 0 -- -- 60
2020-03-26 22:00:00 5 8 Este 16 Sudeste 0 -- -- 50
2020-03-26 21:00:00 5.4 4 Nordeste 10 Nordeste 0 -- -- 50
2020-03-26 20:00:00 6.4 5 Norte 15 Norte 0 -- -- 50
2020-03-26 19:00:00 8.9 12 Norte 24 Noroeste 0 -- -- 46
2020-03-26 18:00:00 11.1 11 Norte 26 Norte 0 -- -- 46
2020-03-26 17:00:00 10.6 9 Norte 32 Norte 0 -- -- 45
2020-03-26 16:00:00 11.6 11 Norte 30 Norte 0 -- -- 45
2020-03-26 15:00:00 10 16 Norte 36 Norte 0 -- -- 49
2020-03-26 14:00:00 10.8 17 Norte 38 Noroeste 0 -- -- 47
2020-03-26 13:00:00 9.7 22 Noroeste 41 Norte 0 -- -- 48
2020-03-26 12:00:00 8.4 18 Norte 33 Norte 0 -- -- 57
2020-03-26 11:00:00 7.4 15 Norte 31 Norte 0 -- -- 62
2020-03-26 10:00:00 6.2 14 Norte 25 Nordeste 0 -- -- 67
2020-03-26 09:00:00 5 6 Norte 17 Norte 0 -- -- 72
2020-03-26 08:00:00 3.3 7 Norte 20 Norte 0 -- -- 91
2020-03-26 07:00:00 3.3 7 Noroeste 19 Noroeste 0 -- -- 96
2020-03-26 06:00:00 4.2 8 Norte 19 Noroeste 0 -- -- 97
2020-03-26 05:00:00 4.5 4 Oeste 11 Oeste 0 -- -- 99
2020-03-26 04:00:00 4.6 3 Oeste 9 Oeste 0 -- -- 99
2020-03-26 03:00:00 4.4 0 Calma 9 Sudeste 0 -- -- 99
2020-03-26 02:00:00 4.3 6 Sur 12 Sur 0 -- -- 99
2020-03-26 01:00:00 4.1 7 Sur 14 Sur 0 -- -- 98
2020-03-26 00:00:00 2.8 0 Calma 9 Sur 0 -- -- 94
2020-03-25 23:00:00 4.1 8 Sur 12 Sur 0 -- -- 94
2020-03-25 22:00:00 5 5 Sur 13 Sudeste 0 -- -- 89
2020-03-25 21:00:00 5.6 7 Sudeste 13 Este 0 -- -- 92
2020-03-25 20:00:00 5.7 2 Norte 18 Nordeste 1.2 -- -- 91
2020-03-25 19:00:00 6.4 10 Este 27 Nordeste 1.2 -- -- 86
2020-03-25 18:00:00 8.3 5 Este 24 Sudeste 0 -- -- 72
2020-03-25 17:00:00 11.5 14 Norte 38 Noroeste 0 -- -- 59
2020-03-25 16:00:00 12.2 17 Noroeste 29 Noroeste 0 -- -- 51
2020-03-25 15:00:00 11.7 11 Oeste 25 Noroeste 0 -- -- 57
2020-03-25 14:00:00 10 9 Oeste 19 Oeste 0 -- -- 62
2020-03-25 13:00:00 8.9 5 Noroeste 13 Noroeste 0 -- -- 67
2020-03-25 12:00:00 8.1 3 Oeste 13 Sur 0 -- -- 70
2020-03-25 11:00:00 7.2 2 Sur 10 Sur 0 -- -- 73
2020-03-25 10:00:00 5.7 2 Norte 5 Norte 0 -- -- 81
2020-03-25 09:00:00 4.1 0 Calma 4 Sur 0 -- -- 92
2020-03-25 08:00:00 3.1 0 Calma 0 Calma 0 -- -- 96
2020-03-25 07:00:00 2.8 0 Calma 5 Noroeste 0 -- -- 97
2020-03-25 06:00:00 2.9 0 Calma 8 Sudeste 0 -- -- 96
2020-03-25 05:00:00 2.4 3 Oeste 12 Noroeste 0 -- -- 98
2020-03-25 04:00:00 2.3 3 Sudeste 6 Este 0 -- -- 99
2020-03-25 03:00:00 1.1 0 Calma 2 Sur 0 -- -- 99
2020-03-25 02:00:00 0.9 0 Calma 2 Sudoeste 0 -- -- 97
2020-03-25 01:00:00 1.6 0 Calma 4 Sudeste 0 -- -- 95
2020-03-25 00:00:00 3.1 4 Sur 7 Sudoeste 0 -- -- 91
2020-03-24 23:00:00 4.5 2 Sudoeste 20 Sudeste 0 -- -- 85
2020-03-24 22:00:00 5.4 5 Sudeste 18 Sudeste 0 -- -- 84
2020-03-24 21:00:00 6 11 Sudeste 22 Sudeste 0 -- -- 80
2020-03-24 20:00:00 6.7 14 Sudeste 24 Sudeste 0 -- -- 77
2020-03-24 19:00:00 8.2 10 Sudeste 24 Sudeste 0 -- -- 71
2020-03-24 18:00:00 9.4 13 Sudeste 29 Sudeste 0 -- -- 68
2020-03-24 17:00:00 10.4 16 Sudeste 30 Sudeste 0 -- -- 64
2020-03-24 16:00:00 10.6 17 Sudeste 29 Sudeste 0 -- -- 67
2020-03-24 15:00:00 10.3 16 Este 39 Sudeste 0 -- -- 65
2020-03-24 14:00:00 11.2 21 Sudeste 36 Este 0 -- -- 65
2020-03-24 13:00:00 10.6 19 Sudeste 37 Este 0 -- -- 70
2020-03-24 12:00:00 10.7 21 Sudeste 42 Sudeste 0 -- -- 69
2020-03-24 11:00:00 10 16 Este 27 Este 0 -- -- 73
2020-03-24 10:00:00 8 10 Sudeste 20 Sudeste 0 -- -- 82
2020-03-24 09:00:00 7.6 8 Este 16 Sudeste 0 -- -- 81
2020-03-24 08:00:00 6.4 3 Sudeste 11 Este 0 -- -- 86
2020-03-24 07:00:00 6.2 5 Sudeste 21 Este 0 -- -- 87
2020-03-24 06:00:00 6.3 8 Sudeste 20 Sudeste 0 -- -- 86
2020-03-24 05:00:00 6.7 13 Sudeste 22 Este 0 -- -- 84
2020-03-24 04:00:00 6.5 8 Este 18 Este 0 -- -- 86
2020-03-24 03:00:00 6.6 12 Este 22 Este 0 -- -- 85
2020-03-24 02:00:00 6.7 14 Sudeste 33 Este 0 -- -- 86
2020-03-24 01:00:00 6.5 13 Sudeste 35 Sudeste 0 -- -- 88
2020-03-24 00:00:00 7 14 Sudeste 31 Sudeste 0 -- -- 85
2020-03-23 23:00:00 6.6 13 Sudeste 23 Sudeste 0 -- -- 89
2020-03-23 22:00:00 6.8 13 Este 30 Este 0 -- -- 90
2020-03-23 21:00:00 7 14 Sudeste 27 Sudeste 0 -- -- 89
2020-03-23 20:00:00 7 8 Sudeste 25 Sudeste 0 -- -- 87
2020-03-23 19:00:00 8.4 18 Sudeste 32 Sudeste 0 -- -- 79
2020-03-23 18:00:00 9.3 15 Sudeste 31 Sudeste 0 -- -- 79
2020-03-23 17:00:00 9.5 11 Este 24 Sudeste 1.8 -- -- 85
2020-03-23 16:00:00 9.3 11 Este 22 Sudeste 0 -- -- 83
2020-03-23 15:00:00 7.4 16 Sudeste 31 Sur 2.4 -- -- 93
2020-03-23 14:00:00 10.1 13 Sudeste 27 Sudeste 0 -- -- 82
2020-03-23 13:00:00 10 15 Sudeste 27 Sudeste 0.8 -- -- 85
2020-03-23 12:00:00 6.5 15 Sudeste 29 Sudeste 1.2 -- -- 92
2020-03-23 11:00:00 6.5 17 Sudeste 34 Sudeste 1.4 -- -- 93
2020-03-23 10:00:00 6.9 14 Sudeste 24 Sudeste 0.4 -- -- 96
2020-03-23 09:00:00 6 11 Sudeste 21 Este 0.4 -- -- 97
2020-03-23 08:00:00 5.6 8 Este 19 Sudeste 0 -- -- 97
2020-03-23 07:00:00 5.6 6 Este 18 Este 0.2 -- -- 98
2020-03-23 06:00:00 5.5 10 Este 17 Este 0 -- -- 98
2020-03-23 05:00:00 5.5 7 Este 18 Este 1.4 -- -- 98
2020-03-23 04:00:00 5.5 10 Este 26 Sudeste 1.2 -- -- 97
2020-03-23 03:00:00 5.5 13 Sudeste 23 Sudeste 3 -- -- 96
2020-03-23 02:00:00 5.9 6 Sudeste 13 Este 0.2 -- -- 97
2020-03-23 01:00:00 6.1 5 Sudeste 17 Sudeste 0 -- -- 97
2020-03-23 00:00:00 5.9 8 Este 14 Este 0.2 -- -- 97
2020-03-22 23:00:00 5.9 8 Sudeste 26 Este 1.2 -- -- 96
2020-03-22 22:00:00 6.2 6 Sudeste 23 Sudeste 3 -- -- 96
2020-03-22 21:00:00 6.5 17 Sudeste 29 Sudeste 0.8 -- -- 95
2020-03-22 20:00:00 6.7 13 Sudeste 25 Sudeste 0 -- -- 93
2020-03-22 19:00:00 7.2 10 Sudeste 25 Sudeste 0 -- -- 93
2020-03-22 18:00:00 7.5 15 Sudeste 28 Sudeste 2.6 -- -- 92
2020-03-22 17:00:00 8 5 Sur 22 Norte 1.2 -- -- 88
2020-03-22 16:00:00 8.1 4 Sudeste 22 Sudeste 4.8 -- -- 91
2020-03-22 15:00:00 8.6 8 Sur 20 Sudeste 0.6 -- -- 85
2020-03-22 14:00:00 10.3 9 Sudeste 22 Este 0 -- -- 75
2020-03-22 13:00:00 9.9 7 Sudeste 16 Sudeste 0 -- -- 74
2020-03-22 12:00:00 9.9 9 Sudeste 18 Sudeste 0 -- -- 72
2020-03-22 11:00:00 8.8 4 Este 15 Este 0 -- -- 79
2020-03-22 10:00:00 7.4 6 Sudeste 11 Sudeste 0 -- -- 84
2020-03-22 09:00:00 5.8 0 Calma 3 Norte 0 -- -- 94
2020-03-22 08:00:00 2.9 0 Calma 10 Este 0 -- -- 100
2020-03-22 07:00:00 2 3 Sudeste 10 Este 0 -- -- 99
2020-03-22 06:00:00 1.8 4 Sudeste 9 Sudeste 0 -- -- 99
2020-03-22 05:00:00 2.3 0 Calma 5 Este 0 -- -- 99
2020-03-22 04:00:00 1.7 0 Calma 3 Sur 0 -- -- 99
2020-03-22 03:00:00 1.6 0 Calma 4 Sudeste 0 -- -- 97
2020-03-22 02:00:00 3 3 Sudeste 9 Sur 0 -- -- 96
2020-03-22 01:00:00 3.7 5 Sudeste 19 Sudeste 0 -- -- 97
2020-03-22 00:00:00 3.8 8 Sudeste 20 Este 0 -- -- 97
2020-03-21 23:00:00 4 8 Sudeste 17 Sudeste 0.6 -- -- 97
2020-03-21 22:00:00 4.2 2 Este 6 Este 1.2 -- -- 97
2020-03-21 21:00:00 4.3 3 Sudeste 5 Sudeste 1.4 -- -- 96
2020-03-21 20:00:00 4.4 0 Calma 3 Este 1 -- -- 95
2020-03-21 19:00:00 4.8 0 Calma 8 Oeste 1.2 -- -- 91
2020-03-21 18:00:00 5.3 0 Calma 4 Oeste 0 -- -- 95
2020-03-21 17:00:00 5.3 3 Noroeste 18 Oeste 0.2 -- -- 96
2020-03-21 16:00:00 5.5 6 Sudoeste 14 Sudoeste 0.2 -- -- 96
2020-03-21 15:00:00 5.6 3 Noroeste 15 Noroeste 0 -- -- 96
2020-03-21 14:00:00 5.8 7 Oeste 25 Sur 0 -- -- 95
2020-03-21 13:00:00 7.6 13 Sur 22 Sur 0 -- -- 90
2020-03-21 12:00:00 7.6 14 Sudeste 23 Sudeste 0 -- -- 89
2020-03-21 11:00:00 7.1 16 Sudeste 28 Sudeste 0 -- -- 91
2020-03-21 10:00:00 6.3 14 Sudeste 24 Sudeste 0 -- -- 93
2020-03-21 09:00:00 5.9 12 Sudeste 21 Sudeste 0 -- -- 94
2020-03-21 08:00:00 5.7 11 Sudeste 19 Sur 0 -- -- 92
2020-03-21 07:00:00 5.5 9 Sudeste 18 Sudeste 0 -- -- 93
2020-03-21 06:00:00 5.1 8 Sudeste 22 Sudeste 0 -- -- 93
2020-03-21 05:00:00 5.1 9 Sudeste 19 Sudeste 0 -- -- 92
2020-03-21 04:00:00 5 9 Sudeste 22 Sudeste 0 -- -- 91
2020-03-21 03:00:00 5.4 12 Sudeste 38 Sudeste 0 -- -- 88
2020-03-21 02:00:00 5.8 20 Sudeste 39 Sudeste 0 -- -- 88
2020-03-21 01:00:00 5.6 23 Sudeste 41 Sudeste 0 -- -- 85
2020-03-21 00:00:00 6.4 20 Sudeste 31 Sudeste 0 -- -- 89
2020-03-20 23:00:00 6.8 13 Sudeste 27 Sudeste 0 -- -- 88
2020-03-20 22:00:00 7 13 Sudeste 30 Sudeste 0 -- -- 88
2020-03-20 21:00:00 7.3 12 Sudeste 26 Sudeste 0 -- -- 86
2020-03-20 20:00:00 7.6 14 Sudeste 27 Sudeste 0 -- -- 87
2020-03-20 19:00:00 8.1 9 Sudeste 29 Sudeste 0 -- -- 86
2020-03-20 18:00:00 8.5 17 Sudeste 29 Sudeste 0 -- -- 84
2020-03-20 17:00:00 8.8 21 Sudeste 33 Sudeste 0 -- -- 82
2020-03-20 16:00:00 9.5 14 Sudeste 35 Sudeste 0 -- -- 79
2020-03-20 15:00:00 9 19 Sudeste 32 Sudeste 0 -- -- 80
2020-03-20 14:00:00 8.3 17 Sudeste 27 Sudeste 0 -- -- 84
2020-03-20 13:00:00 8.1 16 Sudeste 30 Sudeste 0 -- -- 85
2020-03-20 12:00:00 7.6 15 Sudeste 27 Sudeste 0 -- -- 87
2020-03-20 11:00:00 7.2 11 Sudeste 26 Sudeste 0 -- -- 88
2020-03-20 10:00:00 6.7 14 Sudeste 26 Sudeste 0 -- -- 90
2020-03-20 09:00:00 6.5 13 Sudeste 25 Sudeste 0 -- -- 89
2020-03-20 08:00:00 6.1 14 Sudeste 27 Sudeste 0 -- -- 89
2020-03-20 07:00:00 5.6 14 Sudeste 30 Sudeste 0 -- -- 89
2020-03-20 06:00:00 5.5 17 Sudeste 33 Sudeste 0 -- -- 89
2020-03-20 05:00:00 5.9 12 Sudeste 27 Sudeste 0 -- -- 88
2020-03-20 04:00:00 6.2 15 Sudeste 33 Sudeste 0 -- -- 87
2020-03-20 03:00:00 6.2 14 Sudeste 39 Sudeste 0 -- -- 88
2020-03-20 02:00:00 6.3 26 Sudeste 40 Sudeste 0 -- -- 85
2020-03-20 01:00:00 6.6 22 Sudeste 35 Sudeste 0 -- -- 88
2020-03-20 00:00:00 6.8 23 Sudeste 42 Sudeste 0 -- -- 87
2020-03-19 23:00:00 6.4 21 Sudeste 33 Sudeste 0 -- -- 88
2020-03-19 22:00:00 6.8 19 Sudeste 36 Sudeste 0 -- -- 85
2020-03-19 21:00:00 7.3 23 Sudeste 42 Sudeste 0 -- -- 84
2020-03-19 20:00:00 7.9 22 Sudeste 32 Sudeste 0 -- -- 83
2020-03-19 19:00:00 8.8 17 Sudeste 32 Sudeste 0 -- -- 78
2020-03-19 18:00:00 10.8 19 Sudeste 32 Sudeste 0 -- -- 71
2020-03-19 17:00:00 12.3 16 Sudeste 29 Sudeste 0 -- -- 69
2020-03-19 16:00:00 13.3 15 Sudeste 26 Sudeste 0 -- -- 62
2020-03-19 15:00:00 13.2 15 Sur 31 Sudeste 0 -- -- 66
2020-03-19 14:00:00 13 15 Sudeste 29 Sudeste 0 -- -- 66
2020-03-19 13:00:00 12.1 15 Sudeste 27 Sur 0 -- -- 66
2020-03-19 12:00:00 11.7 12 Sudeste 24 Este 0 -- -- 67
2020-03-19 11:00:00 9.8 17 Sudeste 29 Sudeste 0 -- -- 70
2020-03-19 10:00:00 7.9 15 Sudeste 32 Sudeste 0 -- -- 81
2020-03-19 09:00:00 5.8 11 Sudeste 24 Sudeste 0 -- -- 88
2020-03-19 08:00:00 3.9 10 Sudeste 17 Sur 0 -- -- 93
2020-03-19 07:00:00 2.7 0 Calma 5 Sur 0 -- -- 91
2020-03-19 06:00:00 3.4 0 Calma 10 Sudeste 0 -- -- 89
2020-03-19 05:00:00 3.9 3 Sur 12 Sudeste 0 -- -- 89
2020-03-19 04:00:00 3.7 0 Calma 4 Nordeste 0 -- -- 91
2020-03-19 03:00:00 4.9 0 Calma 9 Este 0 -- -- 89
2020-03-19 02:00:00 5.5 0 Calma 7 Este 0 -- -- 89
2020-03-19 01:00:00 6.2 0 Calma 6 Sudoeste 0 -- -- 85
2020-03-19 00:00:00 7.1 3 Sudoeste 8 Sudoeste 0 -- -- 82
2020-03-18 23:00:00 7.4 2 Oeste 5 Sudoeste 0 -- -- 84
2020-03-18 22:00:00 7.8 0 Calma 4 Este 0 -- -- 87
2020-03-18 21:00:00 8.4 2 Noroeste 6 Norte 0 -- -- 90
2020-03-18 20:00:00 9.6 0 Calma 12 Noroeste 0 -- -- 85
2020-03-18 19:00:00 11.5 7 Sur 21 Sudeste 0 -- -- 77
2020-03-18 18:00:00 14 13 Sudeste 28 Sudeste 0 -- -- 61
2020-03-18 17:00:00 15.1 10 Sudeste 19 Sudeste 0 -- -- 57
2020-03-18 16:00:00 16.1 8 Sudeste 23 Este 0 -- -- 54
2020-03-18 15:00:00 16.6 9 Este 22 Sur 0 -- -- 51
2020-03-18 14:00:00 14.2 11 Sudeste 22 Este 0 -- -- 60
2020-03-18 13:00:00 12.9 12 Sudeste 24 Sudeste 0 -- -- 61
2020-03-18 12:00:00 11.6 4 Sudeste 10 Sudeste 0 -- -- 66
2020-03-18 11:00:00 10.1 3 Este 9 Nordeste 0 -- -- 70
2020-03-18 10:00:00 8.5 6 Sudeste 14 Sudeste 0 -- -- 75
2020-03-18 09:00:00 7.5 6 Sudeste 26 Sudeste 0 -- -- 78
2020-03-18 08:00:00 7.2 11 Sudeste 23 Sudeste 0 -- -- 78
2020-03-18 07:00:00 7.5 15 Sudeste 31 Sudeste 0 -- -- 75
2020-03-18 06:00:00 7.8 19 Sudeste 36 Sudeste 0 -- -- 73
2020-03-18 05:00:00 8.2 23 Sudeste 42 Sudeste 0 -- -- 70
2020-03-18 04:00:00 8.4 25 Sudeste 37 Sudeste 0 -- -- 71
2020-03-18 03:00:00 8.3 16 Sudeste 32 Sudeste 0 -- -- 73
2020-03-18 02:00:00 8.4 17 Sudeste 33 Sudeste 0 -- -- 74
2020-03-18 01:00:00 8.5 16 Sudeste 33 Este 0 -- -- 77
2020-03-18 00:00:00 8.4 10 Sudeste 26 Sudeste 0 -- -- 81
2020-03-17 23:00:00 8.5 14 Sudeste 35 Este 0 -- -- 81
2020-03-17 22:00:00 8.3 15 Sudeste 31 Este 0 -- -- 85
2020-03-17 21:00:00 8.5 12 Sudeste 22 Sudeste 0 -- -- 84
2020-03-17 20:00:00 9 15 Sudeste 35 Este 0 -- -- 87
2020-03-17 19:00:00 9.6 10 Sudeste 24 Sudeste 0 -- -- 91
2020-03-17 18:00:00 9 2 Este 8 Sur 0 -- -- 93
2020-03-17 17:00:00 8.8 4 Sudeste 21 Sudeste 1.6 -- -- 95
2020-03-17 16:00:00 9.3 21 Sudeste 40 Este 0.4 -- -- 93
2020-03-17 15:00:00 9.1 9 Este 36 Este 0.8 -- -- 95
2020-03-17 14:00:00 9.5 17 Este 33 Este 0.6 -- -- 91
2020-03-17 13:00:00 10.5 18 Sudeste 37 Sudeste 0 -- -- 82
2020-03-17 12:00:00 10.8 17 Este 33 Este 0 -- -- 81
2020-03-17 11:00:00 8.9 14 Sudeste 25 Sudeste 0 -- -- 89
2020-03-17 10:00:00 7.5 11 Sudeste 22 Sudeste 0 -- -- 91
2020-03-17 09:00:00 6.7 12 Sudeste 29 Este 0 -- -- 92
2020-03-17 08:00:00 5.9 21 Sudeste 37 Sudeste 0 -- -- 94
2020-03-17 07:00:00 5 11 Sudeste 24 Este 0.2 -- -- 99
2020-03-17 06:00:00 4.7 9 Este 26 Sudeste 0 -- -- 99
2020-03-17 05:00:00 4.1 5 Este 13 Este 0 -- -- 99
2020-03-17 04:00:00 3.3 5 Sudeste 13 Este 0.6 -- -- 99
2020-03-17 03:00:00 2.8 4 Este 10 Sudeste 0.6 -- -- 98
2020-03-17 02:00:00 2.3 2 Sudeste 8 Sudeste 0.6 -- -- 97
2020-03-17 01:00:00 1.5 4 Sudeste 12 Sudeste 0.8 -- -- 97
2020-03-17 00:00:00 1 5 Sudeste 26 Este 0.2 -- -- 96
2020-03-16 23:00:00 1.6 21 Este 35 Este 0 -- -- 92
2020-03-16 22:00:00 3.4 9 Sudeste 22 Este 0 -- -- 90
2020-03-16 21:00:00 3.6 6 Este 15 Sudeste 0 -- -- 86
2020-03-16 20:00:00 3.4 5 Sudeste 14 Sudeste 0 -- -- 84
2020-03-16 19:00:00 4.1 8 Este 21 Este 0 -- -- 76
2020-03-16 18:00:00 5.1 10 Este 22 Sudeste 0 -- -- 72
2020-03-16 17:00:00 5.4 9 Este 24 Este 0 -- -- 77
2020-03-16 16:00:00 5.8 8 Este 18 Este 0 -- -- 75
2020-03-16 15:00:00 3.7 13 Sur 21 Sur 0 -- -- 83
2020-03-16 14:00:00 2.7 9 Sudeste 18 Sur 0 -- -- 92
2020-03-16 13:00:00 2.6 11 Sur 17 Sur 0.2 -- -- 97
2020-03-16 12:00:00 2.5 11 Sur 19 Sudeste 0.2 -- -- 98
2020-03-16 11:00:00 1.9 12 Sudeste 19 Sur 0.2 -- -- 98
2020-03-16 10:00:00 1.7 8 Sur 18 Sudeste 0.2 -- -- 98
2020-03-16 09:00:00 1.5 12 Sudeste 18 Sudeste 1.6 -- -- 97
2020-03-16 08:00:00 2.9 7 Sudoeste 21 Noroeste 0.8 -- -- 96
2020-03-16 07:00:00 4 12 Noroeste 28 Oeste 0.8 -- -- 97
2020-03-16 06:00:00 4.9 0 Calma 37 Sur 10.6 -- -- 97
2020-03-16 05:00:00 7.7 14 Sudeste 43 Sudeste 4.2 -- -- 97
2020-03-16 04:00:00 7.6 20 Sudeste 32 Sur 0.4 -- -- 97
2020-03-16 03:00:00 7.5 15 Sudeste 33 Sur 1.8 -- -- 96
2020-03-16 02:00:00 8 13 Sur 25 Sur 1.4 -- -- 93
2020-03-16 01:00:00 8.1 12 Sur 21 Sur 1.2 -- -- 91
2020-03-16 00:00:00 8.5 12 Sur 19 Sur 0 -- -- 90
2020-03-15 23:00:00 8.2 5 Sur 18 Sur 0.8 -- -- 93
2020-03-15 22:00:00 8.4 9 Sudoeste 29 Sudeste 0.8 -- -- 89
2020-03-15 21:00:00 8.7 15 Sur 23 Sudeste 0 -- -- 82
2020-03-15 20:00:00 8.6 15 Sur 32 Sudeste 0 -- -- 86
2020-03-15 19:00:00 8.9 7 Sur 14 Sur 0.4 -- -- 89
2020-03-15 18:00:00 8 3 Sur 24 Noroeste 9 -- -- 91
2020-03-15 17:00:00 9.5 4 Nordeste 25 Oeste 5.4 -- -- 74
2020-03-15 16:00:00 14.6 13 Sur 25 Sudeste 0 -- -- 67
2020-03-15 15:00:00 16.2 13 Sur 27 Sur 0 -- -- 62
2020-03-15 14:00:00 15.8 13 Sur 22 Sudeste 0 -- -- 67
2020-03-15 13:00:00 16.2 15 Sur 27 Sur 0 -- -- 63
2020-03-15 12:00:00 14.2 22 Sur 32 Sudeste 0 -- -- 68
2020-03-15 11:00:00 13.4 20 Sur 31 Sudeste 0 -- -- 73
2020-03-15 10:00:00 11.4 19 Sudeste 36 Sudeste 0 -- -- 79
2020-03-15 09:00:00 10.4 20 Sudeste 31 Sudeste 0 -- -- 85
2020-03-15 08:00:00 8.5 16 Sudeste 23 Sudeste 0 -- -- 91
2020-03-15 07:00:00 8.5 14 Sudeste 27 Sudeste 0 -- -- 89
2020-03-15 06:00:00 8.7 17 Sudeste 26 Sudeste 0 -- -- 88
2020-03-15 05:00:00 8.5 6 Sudeste 22 Sudeste 0 -- -- 88
2020-03-15 04:00:00 8.5 0 Calma 21 Sudeste 0 -- -- 87
2020-03-15 03:00:00 9.2 12 Sudeste 21 Sudeste 0 -- -- 87
2020-03-15 02:00:00 9.8 9 Sudeste 21 Sudeste 0 -- -- 86
2020-03-15 01:00:00 10.4 10 Sudeste 17 Sudeste 0 -- -- 83
2020-03-15 00:00:00 11.7 4 Sudeste 28 Sur 0 -- -- 77
2020-03-14 23:00:00 13.3 19 Sur 24 Sur 0 -- -- 69
2020-03-14 22:00:00 14.4 14 Sur 17 Sur 0 -- -- 61
2020-03-14 21:00:00 14.1 5 Sudoeste 17 Sur 0 -- -- 66
2020-03-14 20:00:00 14.1 13 Sur 28 Sudeste 0 -- -- 66
2020-03-14 19:00:00 18 6 Este 17 Este 0 -- -- 51
2020-03-14 18:00:00 19.7 8 Oeste 16 Oeste 0 -- -- 42
2020-03-14 17:00:00 20 9 Noroeste 16 Noroeste 0 -- -- 44
2020-03-14 16:00:00 18.3 7 Noroeste 21 Sudoeste 0 -- -- 49
2020-03-14 15:00:00 19.7 6 Sur 17 Oeste 0 -- -- 44
2020-03-14 14:00:00 20.5 6 Sudoeste 20 Sur 0 -- -- 42
2020-03-14 13:00:00 19.6 6 Oeste 13 Noroeste 0 -- -- 48
2020-03-14 12:00:00 18 4 Oeste 9 Este 0 -- -- 54
2020-03-14 11:00:00 14.7 4 Noroeste 8 Noroeste 0 -- -- 63
2020-03-14 10:00:00 10.7 2 Noroeste 4 Sudeste 0 -- -- 80
2020-03-14 09:00:00 7.7 0 Calma 4 Norte 0 -- -- 89
2020-03-14 08:00:00 5.2 0 Calma 4 Sudeste 0 -- -- 93
2020-03-14 07:00:00 6.1 0 Calma 10 Sudeste 0 -- -- 88
2020-03-14 06:00:00 6.6 3 Sudoeste 9 Este 0 -- -- 87
2020-03-14 05:00:00 7.3 5 Sudeste 9 Nordeste 0 -- -- 85
2020-03-14 04:00:00 7.7 3 Sudeste 11 Nordeste 0 -- -- 83
2020-03-14 03:00:00 8.2 3 Nordeste 12 Nordeste 0 -- -- 83
2020-03-14 02:00:00 8.2 0 Calma 5 Este 0 -- -- 85
2020-03-14 01:00:00 8.7 3 Sudeste 8 Sudeste 0 -- -- 82
2020-03-14 00:00:00 9.6 0 Calma 6 Este 0 -- -- 79
2020-03-13 23:00:00 10.6 5 Sudeste 19 Sudeste 0 -- -- 75
2020-03-13 22:00:00 12.1 12 Sudeste 19 Sur 0 -- -- 69
2020-03-13 21:00:00 12.5 13 Sudeste 17 Sudeste 0 -- -- 66
2020-03-13 20:00:00 13.7 12 Sur 17 Sur 0 -- -- 59
2020-03-13 19:00:00 15.8 9 Sur 19 Sur 0 -- -- 50
2020-03-13 18:00:00 17.9 14 Sur 23 Sur 0 -- -- 42
2020-03-13 17:00:00 19.3 14 Sur 27 Sudoeste 0 -- -- 40
2020-03-13 16:00:00 19.9 15 Sur 27 Sur 0 -- -- 40
2020-03-13 15:00:00 20.4 12 Sur 24 Sur 0 -- -- 42
2020-03-13 14:00:00 19.7 14 Sur 28 Sur 0 -- -- 44
2020-03-13 13:00:00 19.3 14 Sur 23 Sudeste 0 -- -- 47
2020-03-13 12:00:00 17.6 12 Sur 24 Sudeste 0 -- -- 53
2020-03-13 11:00:00 16.1 13 Sudeste 24 Sudeste 0 -- -- 55
2020-03-13 10:00:00 14.5 17 Sur 28 Sudeste 0 -- -- 60
2020-03-13 09:00:00 12.8 5 Este 15 Sudeste 0 -- -- 69
2020-03-13 08:00:00 10.8 5 Sudeste 9 Sudeste 0 -- -- 74
2020-03-13 07:00:00 10 5 Este 9 Sudeste 0 -- -- 78
2020-03-13 06:00:00 8.9 0 Calma 7 Este 0 -- -- 77
2020-03-13 05:00:00 9.7 0 Calma 4 Norte 0 -- -- 74
2020-03-13 04:00:00 11.2 3 Sudeste 5 Sudeste 0 -- -- 69
2020-03-13 03:00:00 11.1 0 Calma 5 Sur 0 -- -- 68
2020-03-13 02:00:00 10.1 0 Calma 6 Sur 0 -- -- 70
2020-03-13 01:00:00 10.7 0 Calma 3 Sudoeste 0 -- -- 69
2020-03-13 00:00:00 11.4 0 Calma 4 Sur 0 -- -- 66
2020-03-12 23:00:00 13.4 0 Calma 6 Sudeste 0 -- -- 58
2020-03-12 22:00:00 16 4 Noroeste 18 Sur 0 -- -- 51
2020-03-12 21:00:00 15.2 8 Sur 13 Sur 0 -- -- 51
2020-03-12 20:00:00 17 9 Sur 12 Sur 0 -- -- 46
2020-03-12 19:00:00 19.4 7 Sur 12 Sur 0 -- -- 38
2020-03-12 18:00:00 22.8 8 Sur 18 Sur 0 -- -- 29
2020-03-12 17:00:00 24 13 Sur 27 Sur 0 -- -- 27
2020-03-12 16:00:00 25 8 Sudoeste 28 Sur 0 -- -- 27
2020-03-12 15:00:00 24.9 12 Sudoeste 31 Sudoeste 0 -- -- 29
2020-03-12 14:00:00 25 13 Sur 25 Sur 0 -- -- 28
2020-03-12 13:00:00 23.9 13 Sur 23 Sur 0 -- -- 32
2020-03-12 12:00:00 23 13 Sur 22 Sur 0 -- -- 33
2020-03-12 11:00:00 21.8 14 Sur 20 Sur 0 -- -- 39
2020-03-12 10:00:00 18.7 7 Sudeste 12 Sudeste 0 -- -- 47
2020-03-12 09:00:00 13.5 0 Calma 5 Nordeste 0 -- -- 57
2020-03-12 08:00:00 8.1 0 Calma 4 Noroeste 0 -- -- 73
2020-03-12 07:00:00 9.3 3 Este 8 Este 0 -- -- 67
2020-03-12 06:00:00 7.5 0 Calma 4 Sudeste 0 -- -- 75
2020-03-12 05:00:00 7.9 2 Sur 5 Sudeste 0 -- -- 73
2020-03-12 04:00:00 8.8 2 Sur 6 Noroeste 0 -- -- 70
2020-03-12 03:00:00 9.4 0 Calma 5 Sudeste 0 -- -- 66
2020-03-12 02:00:00 9 0 Calma 2 Sudoeste 0 -- -- 69
2020-03-12 01:00:00 9.7 0 Calma 3 Sudeste 0 -- -- 67
2020-03-12 00:00:00 10.6 0 Calma 2 Noroeste 0 -- -- 64
2020-03-11 23:00:00 11.8 0 Calma 3 Sur 0 -- -- 61
2020-03-11 22:00:00 12 2 Sur 2 Sur 0 -- -- 61
2020-03-11 21:00:00 13.1 0 Calma 3 Sur 0 -- -- 57
2020-03-11 20:00:00 14.5 2 Sur 3 Sudoeste 0 -- -- 52
2020-03-11 19:00:00 19.5 0 Calma 9 Norte 0 -- -- 39
2020-03-11 18:00:00 23.2 6 Noroeste 18 Noroeste 0 -- -- 31
2020-03-11 17:00:00 24.5 11 Noroeste 21 Noroeste 0 -- -- 28
2020-03-11 16:00:00 25.4 10 Norte 24 Norte 0 -- -- 28
2020-03-11 15:00:00 25 12 Norte 23 Norte 0 -- -- 30
2020-03-11 14:00:00 24.1 13 Norte 23 Norte 0 -- -- 31
2020-03-11 13:00:00 23.3 9 Norte 18 Norte 0 -- -- 35
2020-03-11 12:00:00 21.3 5 Noroeste 14 Noroeste 0 -- -- 39
2020-03-11 11:00:00 19.6 4 Noroeste 10 Noroeste 0 -- -- 44
2020-03-11 10:00:00 16.3 0 Calma 3 Norte 0 -- -- 56
2020-03-11 09:00:00 11.3 0 Calma 3 Norte 0 -- -- 67
2020-03-11 08:00:00 5.8 0 Calma 2 Sur 0 -- -- 84
2020-03-11 07:00:00 5.5 0 Calma 2 Sur 0 -- -- 84
2020-03-11 06:00:00 5.4 0 Calma 4 Sudoeste 0 -- -- 83
2020-03-11 05:00:00 6.1 2 Sudoeste 4 Sudoeste 0 -- -- 81
2020-03-11 04:00:00 6.3 0 Calma 4 Oeste 0 -- -- 79
2020-03-11 03:00:00 6.9 0 Calma 3 Oeste 0 -- -- 75
2020-03-11 02:00:00 8.4 0 Calma 5 Oeste 0 -- -- 69
2020-03-11 01:00:00 7.5 2 Sudoeste 4 Sudoeste 0 -- -- 72
2020-03-11 00:00:00 7.7 0 Calma 3 Sudoeste 0 -- -- 73
2020-03-10 23:00:00 8.4 0 Calma 4 Oeste 0 -- -- 70
2020-03-10 22:00:00 9.4 3 Oeste 4 Oeste 0 -- -- 64
2020-03-10 21:00:00 10.1 0 Calma 3 Sudoeste 0 -- -- 63
2020-03-10 20:00:00 13.1 0 Calma 4 Noroeste 0 -- -- 51
2020-03-10 19:00:00 16.9 4 Noroeste 16 Noroeste 0 -- -- 42
2020-03-10 18:00:00 19.4 10 Noroeste 17 Noroeste 0 -- -- 34
2020-03-10 17:00:00 20.8 8 Noroeste 21 Norte 0 -- -- 33
2020-03-10 16:00:00 21 9 Noroeste 21 Noroeste 0 -- -- 34
2020-03-10 15:00:00 21 9 Norte 22 Norte 0 -- -- 35
2020-03-10 14:00:00 19.7 9 Noroeste 20 Noroeste 0 -- -- 33
2020-03-10 13:00:00 17.5 6 Noroeste 17 Noroeste 0 -- -- 37
2020-03-10 12:00:00 15.7 8 Noroeste 20 Noroeste 0 -- -- 40
2020-03-10 11:00:00 14.2 9 Norte 17 Norte 0 -- -- 44
2020-03-10 10:00:00 11.6 9 Norte 15 Norte 0 -- -- 49
2020-03-10 09:00:00 8.1 4 Norte 8 Nordeste 0 -- -- 60
2020-03-10 08:00:00 3.7 0 Calma 8 Noroeste 0 -- -- 71
2020-03-10 07:00:00 2.8 2 Noroeste 4 Noroeste 0 -- -- 74
2020-03-10 06:00:00 3.2 2 Oeste 7 Noroeste 0 -- -- 72
2020-03-10 05:00:00 3.7 2 Oeste 8 Noroeste 0 -- -- 70
2020-03-10 04:00:00 5.1 3 Noroeste 11 Oeste 0 -- -- 65
2020-03-10 03:00:00 5.3 3 Noroeste 12 Norte 0 -- -- 66
2020-03-10 02:00:00 5.8 6 Noroeste 17 Norte 0 -- -- 63
2020-03-10 01:00:00 6.6 8 Noroeste 21 Norte 0 -- -- 60
2020-03-10 00:00:00 7.4 11 Norte 24 Norte 0 -- -- 56
2020-03-09 23:00:00 7.8 11 Norte 27 Norte 0 -- -- 56
2020-03-09 22:00:00 8.6 13 Norte 28 Norte 0 -- -- 51
2020-03-09 21:00:00 9.1 15 Norte 31 Norte 0 -- -- 49
2020-03-09 20:00:00 9.7 11 Norte 24 Noroeste 0 -- -- 46
2020-03-09 19:00:00 12 10 Norte 32 Norte 0 -- -- 38
2020-03-09 18:00:00 13.6 14 Noroeste 32 Noroeste 0 -- -- 37
2020-03-09 17:00:00 14.9 14 Noroeste 44 Noroeste 0 -- -- 35
2020-03-09 16:00:00 15 17 Noroeste 34 Noroeste 0 -- -- 38
2020-03-09 15:00:00 14.3 19 Noroeste 37 Noroeste 0 -- -- 39
2020-03-09 14:00:00 13.6 15 Noroeste 33 Noroeste 0 -- -- 43
2020-03-09 13:00:00 12.2 17 Norte 32 Norte 0 -- -- 51
2020-03-09 12:00:00 10.9 15 Norte 39 Norte 0 -- -- 56
2020-03-09 11:00:00 8.9 19 Norte 35 Norte 0 -- -- 63
2020-03-09 10:00:00 7.3 14 Norte 26 Noroeste 0 -- -- 70
2020-03-09 09:00:00 4.4 11 Norte 26 Norte 0 -- -- 88
2020-03-09 08:00:00 1.6 0 Calma 5 Noroeste 0 -- -- 97
2020-03-09 07:00:00 1.1 0 Calma 5 Noroeste 0 -- -- 94
2020-03-09 06:00:00 1.9 0 Calma 8 Noroeste 0 -- -- 95
2020-03-09 05:00:00 2.8 4 Oeste 9 Oeste 0 -- -- 97
2020-03-09 04:00:00 1.6 0 Calma 5 Noroeste 0 -- -- 91
2020-03-09 03:00:00 3.5 3 Noroeste 7 Noroeste 0 -- -- 91
2020-03-09 02:00:00 4.2 3 Oeste 6 Noroeste 0 -- -- 89
2020-03-09 01:00:00 5.4 0 Calma 13 Noroeste 0 -- -- 83
2020-03-09 00:00:00 5.8 0 Calma 10 Oeste 0 -- -- 77
2020-03-08 23:00:00 7.3 4 Oeste 12 Oeste 0 -- -- 71
2020-03-08 22:00:00 6.3 2 Noroeste 4 Noroeste 0 -- -- 73
2020-03-08 21:00:00 9.2 0 Calma 10 Oeste 0 -- -- 63
2020-03-08 20:00:00 9.5 4 Oeste 13 Noroeste 0 -- -- 59
2020-03-08 19:00:00 11.5 9 Noroeste 15 Noroeste 0 -- -- 46
2020-03-08 18:00:00 12.6 12 Noroeste 24 Noroeste 0 -- -- 44
2020-03-08 17:00:00 13.8 12 Noroeste 24 Noroeste 0 -- -- 39
2020-03-08 16:00:00 15.4 14 Noroeste 27 Noroeste 0 -- -- 32
2020-03-08 15:00:00 15.4 13 Oeste 26 Oeste 0 -- -- 33
2020-03-08 14:00:00 14.9 13 Noroeste 26 Noroeste 0 -- -- 39
2020-03-08 13:00:00 13.9 13 Noroeste 28 Noroeste 0 -- -- 44
2020-03-08 12:00:00 12.2 14 Noroeste 24 Noroeste 0 -- -- 52
2020-03-08 11:00:00 10.3 12 Noroeste 22 Noroeste 0 -- -- 63
2020-03-08 10:00:00 8.8 0 Calma 5 Norte 0 -- -- 65
2020-03-08 09:00:00 4.1 0 Calma 4 Sudeste 0 -- -- 93
2020-03-08 08:00:00 -1.2 0 Calma 4 Sudeste 0 -- -- 96
2020-03-08 07:00:00 -1.1 0 Calma 5 Sudeste 0 -- -- 94
2020-03-08 06:00:00 -0.2 2 Noroeste 4 Noroeste 0 -- -- 95
2020-03-08 05:00:00 -0.3 2 Sur 2 Sur 0 -- -- 93
2020-03-08 04:00:00 0.3 0 Calma 6 Sur 0 -- -- 90
2020-03-08 03:00:00 0.8 3 Sudeste 7 Noroeste 0 -- -- 90
2020-03-08 02:00:00 3.1 0 Calma 11 Noroeste 0 -- -- 83
2020-03-08 01:00:00 4.6 4 Noroeste 9 Oeste 0 -- -- 79
2020-03-08 00:00:00 5.6 5 Norte 19 Norte 0 -- -- 74
2020-03-07 23:00:00 6.5 6 Norte 20 Noroeste 0 -- -- 71
2020-03-07 22:00:00 6.4 3 Noroeste 17 Noroeste 0 -- -- 72
2020-03-07 21:00:00 7.1 3 Noroeste 16 Norte 0 -- -- 69
2020-03-07 20:00:00 8.5 9 Norte 21 Norte 0 -- -- 63
2020-03-07 19:00:00 10 11 Norte 28 Noroeste 0 -- -- 58
2020-03-07 18:00:00 11.6 10 Norte 34 Noroeste 0 -- -- 53
2020-03-07 17:00:00 13.2 15 Norte 40 Norte 0 -- -- 47
2020-03-07 16:00:00 13.3 21 Norte 42 Norte 0 -- -- 48
2020-03-07 15:00:00 12.7 21 Norte 39 Norte 0 -- -- 48
2020-03-07 14:00:00 10.5 18 Norte 36 Noroeste 0 -- -- 55
2020-03-07 13:00:00 8.9 14 Norte 33 Noroeste 0 -- -- 60
2020-03-07 12:00:00 7.8 17 Norte 33 Norte 0 -- -- 59
2020-03-07 11:00:00 6.5 17 Noroeste 32 Noroeste 0 -- -- 61
2020-03-07 10:00:00 4.3 8 Noroeste 14 Norte 0 -- -- 65
2020-03-07 09:00:00 1.5 4 Noroeste 12 Noroeste 0 -- -- 73
2020-03-07 08:00:00 -0.2 0 Calma 14 Norte 0 -- -- 79
2020-03-07 07:00:00 0.5 8 Noroeste 15 Noroeste 0 -- -- 76
2020-03-07 06:00:00 0.4 5 Oeste 11 Noroeste 0 -- -- 78
2020-03-07 05:00:00 0.7 7 Noroeste 17 Noroeste 0 -- -- 78
2020-03-07 04:00:00 1 7 Noroeste 21 Noroeste 0 -- -- 77
2020-03-07 03:00:00 1.3 9 Noroeste 21 Noroeste 0 -- -- 74
2020-03-07 02:00:00 1.6 8 Noroeste 29 Norte 0 -- -- 73
2020-03-07 01:00:00 1.9 12 Norte 27 Norte 0 -- -- 73
2020-03-07 00:00:00 2.6 11 Norte 31 Noroeste 0 -- -- 69
2020-03-06 23:00:00 3.3 11 Norte 24 Noroeste 0 -- -- 62
2020-03-06 22:00:00 3.6 13 Noroeste 27 Noroeste 0 -- -- 60
2020-03-06 21:00:00 4.1 12 Noroeste 28 Noroeste 0 -- -- 59
2020-03-06 20:00:00 4.9 16 Noroeste 33 Noroeste 0 -- -- 53
2020-03-06 19:00:00 5.7 18 Noroeste 52 Noroeste 0 -- -- 49
2020-03-06 18:00:00 7 23 Noroeste 51 Norte 0 -- -- 45
2020-03-06 17:00:00 8.6 31 Noroeste 56 Noroeste 0 -- -- 44
2020-03-06 16:00:00 8.7 28 Noroeste 61 Noroeste 0 -- -- 46
2020-03-06 15:00:00 8.2 34 Noroeste 64 Noroeste 0 -- -- 44
2020-03-06 14:00:00 8.6 35 Noroeste 64 Noroeste 0 -- -- 47
2020-03-06 13:00:00 7.4 34 Noroeste 66 Noroeste 0 -- -- 53
2020-03-06 12:00:00 6.6 30 Noroeste 63 Noroeste 0 -- -- 53
2020-03-06 11:00:00 6.4 31 Noroeste 51 Noroeste 0 -- -- 60
2020-03-06 10:00:00 5 24 Noroeste 53 Noroeste 0 -- -- 80
2020-03-06 09:00:00 3.4 22 Noroeste 36 Noroeste 0 -- -- 86
2020-03-06 08:00:00 2.7 16 Noroeste 33 Noroeste 0 -- -- 92
2020-03-06 07:00:00 2.5 13 Oeste 29 Oeste 0 -- -- 90
2020-03-06 06:00:00 2.7 13 Oeste 36 Noroeste 0 -- -- 84
2020-03-06 05:00:00 2.9 15 Noroeste 29 Noroeste 0 -- -- 82
2020-03-06 04:00:00 3.3 15 Noroeste 35 Noroeste 0 -- -- 85
2020-03-06 03:00:00 4 19 Noroeste 42 Noroeste 0 -- -- 85
2020-03-06 02:00:00 4.9 17 Noroeste 36 Noroeste 0 -- -- 82
2020-03-06 01:00:00 5.6 15 Noroeste 27 Noroeste 0 -- -- 80
2020-03-06 00:00:00 5.8 15 Noroeste 31 Noroeste 0 -- -- 78
2020-03-05 23:00:00 6.7 16 Noroeste 30 Noroeste 0 -- -- 77
2020-03-05 22:00:00 7.6 15 Noroeste 36 Noroeste 0 -- -- 78
2020-03-05 21:00:00 7.6 9 Oeste 23 Oeste 0 -- -- 71
2020-03-05 20:00:00 7.1 3 Noroeste 26 Oeste 0 -- -- 70
2020-03-05 19:00:00 9.2 11 Noroeste 37 Noroeste 0 -- -- 63
2020-03-05 18:00:00 10.5 21 Noroeste 49 Noroeste 0 -- -- 57
2020-03-05 17:00:00 11.2 26 Noroeste 50 Noroeste 0 -- -- 58
2020-03-05 16:00:00 10.8 22 Noroeste 39 Oeste 0 -- -- 76
2020-03-05 15:00:00 10.1 24 Noroeste 44 Oeste 0.6 -- -- 92
2020-03-05 14:00:00 8.7 25 Oeste 42 Oeste 1.2 -- -- 97
2020-03-05 13:00:00 8.5 19 Oeste 40 Oeste 0.8 -- -- 97
2020-03-05 12:00:00 9.3 18 Oeste 42 Oeste 0 -- -- 91
2020-03-05 11:00:00 9.3 18 Oeste 35 Oeste 0 -- -- 85
2020-03-05 10:00:00 8.8 17 Oeste 34 Oeste 0 -- -- 88
2020-03-05 09:00:00 8.1 7 Oeste 27 Noroeste 0 -- -- 94
2020-03-05 08:00:00 7.7 9 Oeste 23 Oeste 0 -- -- 95
2020-03-05 07:00:00 7.6 11 Oeste 35 Oeste 0 -- -- 95
2020-03-05 06:00:00 7.8 15 Oeste 30 Oeste 0 -- -- 96
2020-03-05 05:00:00 7.8 15 Oeste 26 Oeste 0 -- -- 97
2020-03-05 04:00:00 7.7 10 Noroeste 23 Oeste 0 -- -- 96
2020-03-05 03:00:00 7.8 9 Oeste 17 Oeste 0 -- -- 95
2020-03-05 02:00:00 7.7 7 Oeste 16 Noroeste 0 -- -- 94
2020-03-05 01:00:00 7.8 6 Oeste 17 Oeste 0 -- -- 93
2020-03-05 00:00:00 8.5 5 Noroeste 18 Oeste 0 -- -- 89
2020-03-04 23:00:00 9.1 5 Noroeste 16 Oeste 0 -- -- 87
2020-03-04 22:00:00 9 6 Noroeste 14 Oeste 0 -- -- 85
2020-03-04 21:00:00 9.8 3 Oeste 15 Noroeste 0 -- -- 77
2020-03-04 20:00:00 11.5 9 Noroeste 17 Oeste 0 -- -- 70
2020-03-04 19:00:00 12.2 11 Oeste 22 Oeste 0 -- -- 69
2020-03-04 18:00:00 13.3 9 Noroeste 27 Oeste 0 -- -- 63
2020-03-04 17:00:00 13.3 15 Noroeste 30 Oeste 0 -- -- 62
2020-03-04 16:00:00 13.6 13 Noroeste 32 Noroeste 0 -- -- 65
2020-03-04 15:00:00 13.2 14 Noroeste 32 Noroeste 0 -- -- 69
2020-03-04 14:00:00 12.5 15 Noroeste 27 Noroeste 0 -- -- 69
2020-03-04 13:00:00 11.9 16 Noroeste 28 Noroeste 0 -- -- 77
2020-03-04 12:00:00 10.8 17 Noroeste 28 Noroeste 0 -- -- 83
2020-03-04 11:00:00 9.7 11 Noroeste 26 Noroeste 0 -- -- 100
2020-03-04 10:00:00 8.9 14 Noroeste 26 Noroeste 0 -- -- 100
2020-03-04 09:00:00 8.8 11 Noroeste 28 Oeste 0 -- -- 100
2020-03-04 08:00:00 8.7 12 Noroeste 29 Noroeste 0 -- -- 100
2020-03-04 07:00:00 8.7 12 Noroeste 25 Noroeste 0 -- -- 100
2020-03-04 06:00:00 8.9 12 Noroeste 28 Oeste 0 -- -- 99
2020-03-04 05:00:00 9 13 Oeste 30 Noroeste 0 -- -- 99
2020-03-04 04:00:00 9.2 14 Noroeste 31 Noroeste 0 -- -- 98
2020-03-04 03:00:00 9.6 11 Noroeste 29 Noroeste 0 -- -- 95
2020-03-04 02:00:00 10 16 Noroeste 31 Norte 0 -- -- 95
2020-03-04 01:00:00 10.1 14 Noroeste 33 Noroeste 0 -- -- 95
2020-03-04 00:00:00 10.2 17 Noroeste 35 Noroeste 0 -- -- 95
2020-03-03 23:00:00 10.2 17 Noroeste 40 Oeste 0 -- -- 94
2020-03-03 22:00:00 10.1 17 Noroeste 48 Noroeste 0 -- -- 93
2020-03-03 21:00:00 9.8 18 Oeste 40 Oeste 0 -- -- 92
2020-03-03 20:00:00 9.8 18 Oeste 39 Oeste 0 -- -- 90
2020-03-03 19:00:00 10.1 14 Oeste 37 Oeste 0 -- -- 87
2020-03-03 18:00:00 11 18 Oeste 48 Oeste 0 -- -- 82
2020-03-03 17:00:00 11.2 22 Oeste 45 Oeste 0 -- -- 80
2020-03-03 16:00:00 9.2 22 Noroeste 46 Oeste 0 -- -- 86
2020-03-03 15:00:00 7.9 19 Noroeste 41 Oeste 0 -- -- 89
2020-03-03 14:00:00 6.9 17 Oeste 45 Oeste 0 -- -- 92
2020-03-03 13:00:00 6 18 Oeste 36 Oeste 0 -- -- 90
2020-03-03 12:00:00 4.2 10 Oeste 30 Oeste 0 -- -- 93
2020-03-03 11:00:00 3.3 18 Oeste 35 Oeste 0 -- -- 92
2020-03-03 10:00:00 2.6 14 Oeste 33 Oeste 0 -- -- 92
2020-03-03 09:00:00 2.1 14 Oeste 33 Oeste 0 -- -- 92
2020-03-03 08:00:00 2.1 13 Oeste 26 Oeste 0 -- -- 87
2020-03-03 07:00:00 1.9 7 Noroeste 22 Noroeste 0 -- -- 86
2020-03-03 06:00:00 1.9 8 Oeste 19 Oeste 0 -- -- 84
2020-03-03 05:00:00 1.9 10 Oeste 24 Oeste 0 -- -- 83
2020-03-03 04:00:00 1.4 8 Oeste 18 Oeste 0 -- -- 85
2020-03-03 03:00:00 1.6 9 Oeste 18 Oeste 0 -- -- 81
2020-03-03 02:00:00 2 2 Este 25 Noroeste 0 -- -- 74
2020-03-03 01:00:00 2.3 13 Noroeste 21 Noroeste 0 -- -- 75
2020-03-03 00:00:00 2.6 9 Noroeste 19 Oeste 0 -- -- 72
2020-03-02 23:00:00 3.1 7 Noroeste 22 Noroeste 0 -- -- 70
2020-03-02 22:00:00 3.1 10 Oeste 22 Noroeste 0 -- -- 70
2020-03-02 21:00:00 4 13 Noroeste 28 Noroeste 0 -- -- 62
2020-03-02 20:00:00 4.5 17 Noroeste 38 Noroeste 0 -- -- 61
2020-03-02 19:00:00 5.4 22 Noroeste 48 Noroeste 0 -- -- 57
2020-03-02 18:00:00 7.1 24 Noroeste 61 Noroeste 0 -- -- 51
2020-03-02 17:00:00 7.6 34 Noroeste 62 Noroeste 0 -- -- 52
2020-03-02 16:00:00 7.3 35 Noroeste 66 Norte 0 -- -- 61
2020-03-02 15:00:00 8.1 39 Noroeste 68 Norte 0 -- -- 62
2020-03-02 14:00:00 8.1 27 Noroeste 62 Noroeste 0 -- -- 71
2020-03-02 13:00:00 8.8 30 Noroeste 63 Noroeste 0 -- -- 59
2020-03-02 12:00:00 8.3 33 Noroeste 59 Oeste 0 -- -- 63
2020-03-02 11:00:00 8.4 32 Noroeste 70 Noroeste 0 -- -- 65
2020-03-02 10:00:00 6.5 26 Noroeste 60 Oeste 1 -- -- 88
2020-03-02 09:00:00 8.7 31 Noroeste 60 Oeste 1 -- -- 95
2020-03-02 08:00:00 8.2 33 Oeste 59 Oeste 1.8 -- -- 97
2020-03-02 07:00:00 8.2 31 Oeste 63 Noroeste 0.6 -- -- 95
2020-03-02 06:00:00 8.1 16 Oeste 46 Oeste 0.6 -- -- 97
2020-03-02 05:00:00 8 23 Oeste 50 Noroeste 2.6 -- -- 96
2020-03-02 04:00:00 8.3 31 Oeste 57 Oeste 3.6 -- -- 94
2020-03-02 03:00:00 9 16 Oeste 57 Oeste 0.2 -- -- 94
2020-03-02 02:00:00 8.8 14 Sudoeste 50 Sudoeste 0.4 -- -- 96
2020-03-02 01:00:00 8.5 12 Sudoeste 50 Sudoeste 0.8 -- -- 96
2020-03-02 00:00:00 8.1 14 Sudoeste 48 Sur 0 -- -- 97
2020-03-01 23:00:00 7.9 19 Sudoeste 43 Sudoeste 0 -- -- 96
2020-03-01 22:00:00 7.9 18 Sudoeste 37 Sudoeste 1.2 -- -- 96
2020-03-01 21:00:00 8.6 10 Oeste 29 Oeste 0 -- -- 91
2020-03-01 20:00:00 9.2 6 Oeste 27 Sudoeste 0 -- -- 86
2020-03-01 19:00:00 9.9 15 Oeste 42 Oeste 0.2 -- -- 83
2020-03-01 18:00:00 10.3 14 Oeste 28 Oeste 0 -- -- 78
2020-03-01 17:00:00 9.2 13 Oeste 34 Oeste 0 -- -- 89
2020-03-01 16:00:00 9.5 12 Oeste 30 Oeste 0.2 -- -- 81
2020-03-01 15:00:00 9.9 16 Oeste 36 Oeste 0 -- -- 78
2020-03-01 14:00:00 9.1 12 Oeste 32 Oeste 0 -- -- 82
2020-03-01 13:00:00 8.7 17 Oeste 34 Oeste 0 -- -- 83
2020-03-01 12:00:00 8.1 19 Oeste 38 Oeste 0 -- -- 86
2020-03-01 11:00:00 6.9 14 Oeste 26 Oeste 0 -- -- 91
2020-03-01 10:00:00 6.2 11 Oeste 27 Oeste 0 -- -- 91
2020-03-01 09:00:00 5.7 15 Oeste 30 Oeste 0 -- -- 92
2020-03-01 08:00:00 5.7 15 Noroeste 35 Noroeste 0 -- -- 92
2020-03-01 07:00:00 5.5 13 Oeste 25 Oeste 0 -- -- 93
2020-03-01 06:00:00 5.4 10 Oeste 32 Noroeste 0 -- -- 94
2020-03-01 05:00:00 5.5 11 Noroeste 30 Noroeste 0.2 -- -- 93
2020-03-01 04:00:00 6.1 14 Noroeste 30 Noroeste 0 -- -- 84
2020-03-01 03:00:00 6.3 16 Noroeste 35 Oeste 0 -- -- 82
2020-03-01 02:00:00 6.6 15 Noroeste 28 Noroeste 0 -- -- 85
2020-03-01 01:00:00 7.1 14 Noroeste 32 Noroeste 0 -- -- 83
2020-03-01 00:00:00 7.9 17 Noroeste 37 Oeste 0 -- -- 77
2020-02-29 23:00:00 8.7 17 Oeste 35 Oeste 0 -- -- 83
2020-02-29 22:00:00 9.1 14 Oeste 30 Oeste 0 -- -- 87
2020-02-29 21:00:00 9.2 16 Oeste 32 Oeste 0 -- -- 85
2020-02-29 20:00:00 9.6 18 Oeste 32 Oeste 0 -- -- 78
2020-02-29 19:00:00 10.1 14 Oeste 44 Oeste 0 -- -- 71
2020-02-29 18:00:00 10.3 23 Oeste 41 Oeste 0 -- -- 75
2020-02-29 17:00:00 9.9 11 Oeste 33 Oeste 0 -- -- 78
2020-02-29 16:00:00 9.7 12 Oeste 30 Oeste 0 -- -- 75
2020-02-29 15:00:00 10.5 13 Oeste 32 Oeste 0 -- -- 67
2020-02-29 14:00:00 10.9 15 Oeste 40 Oeste 0 -- -- 62
2020-02-29 13:00:00 11.7 18 Oeste 35 Noroeste 0 -- -- 58
2020-02-29 12:00:00 10.6 17 Oeste 33 Oeste 0 -- -- 62
2020-02-29 11:00:00 9.4 17 Oeste 30 Oeste 0 -- -- 64
2020-02-29 10:00:00 8 13 Oeste 28 Oeste 0 -- -- 68
2020-02-29 09:00:00 6.5 7 Sudoeste 25 Oeste 0 -- -- 75
2020-02-29 08:00:00 6 5 Oeste 32 Oeste 0 -- -- 79
2020-02-29 07:00:00 6.5 7 Sudoeste 24 Sudoeste 0 -- -- 76
2020-02-29 06:00:00 7.2 10 Sudoeste 28 Sudoeste 0 -- -- 72
2020-02-29 05:00:00 6.7 3 Sudoeste 16 Sudoeste 0 -- -- 70
2020-02-29 04:00:00 7.5 7 Sudoeste 16 Sur 0 -- -- 63
2020-02-29 03:00:00 7.4 7 Sur 23 Sur 0 -- -- 59
2020-02-29 02:00:00 6.9 14 Sur 21 Sur 0 -- -- 65
2020-02-29 01:00:00 7.4 16 Sur 25 Sudeste 0 -- -- 64
2020-02-29 00:00:00 8.1 18 Sur 24 Sur 0 -- -- 62